createdAt,value
2023-02-25T00:00:58.768Z,48.70
2023-02-25T00:03:28.058Z,48.70
2023-02-25T00:05:57.318Z,48.80
2023-02-25T00:08:26.134Z,49.00
2023-02-25T00:10:55.367Z,48.70
2023-02-25T00:13:24.651Z,48.90
2023-02-25T00:15:53.868Z,48.90
2023-02-25T00:18:23.196Z,48.90
2023-02-25T00:20:52.300Z,48.70
2023-02-25T00:23:20.946Z,48.80
2023-02-25T00:25:50.328Z,48.80
2023-02-25T00:28:19.334Z,48.90
2023-02-25T00:30:49.024Z,48.90
2023-02-25T00:33:17.899Z,49.00
2023-02-25T00:35:46.778Z,48.80
2023-02-25T00:38:16.391Z,48.90
2023-02-25T00:40:47.058Z,48.90
2023-02-25T00:43:15.170Z,49.20
2023-02-25T00:45:44.334Z,48.70
2023-02-25T00:48:13.917Z,48.70
2023-02-25T00:50:42.711Z,48.70
2023-02-25T00:53:12.049Z,48.80
2023-02-25T00:55:40.872Z,49.00
2023-02-25T00:58:09.712Z,48.80
2023-02-25T01:00:50.166Z,48.60
2023-02-25T01:03:20.683Z,48.70
2023-02-25T01:05:49.528Z,48.70
2023-02-25T01:08:17.581Z,48.60
2023-02-25T01:10:46.311Z,48.50
2023-02-25T01:13:15.210Z,48.50
2023-02-25T01:15:44.493Z,48.50
2023-02-25T01:18:13.896Z,48.60
2023-02-25T01:20:42.863Z,48.60
2023-02-25T01:23:12.369Z,48.40
2023-02-25T01:25:41.658Z,48.40
2023-02-25T01:28:10.511Z,48.60
2023-02-25T01:30:39.371Z,48.40
2023-02-25T01:33:08.134Z,48.30
2023-02-25T01:35:36.163Z,48.40
2023-02-25T01:38:04.371Z,48.50
2023-02-25T01:40:33.197Z,48.50
2023-02-25T01:43:02.833Z,48.40
2023-02-25T01:45:32.660Z,48.50
2023-02-25T01:48:01.377Z,48.50
2023-02-25T01:50:29.818Z,48.40
2023-02-25T01:52:57.990Z,48.40
2023-02-25T01:55:27.181Z,48.30
2023-02-25T01:57:55.682Z,48.20
2023-02-25T02:00:23.482Z,48.40
2023-02-25T02:02:52.870Z,48.20
2023-02-25T02:05:22.310Z,48.40
2023-02-25T02:07:51.196Z,49.00
2023-02-25T02:10:19.792Z,48.30
2023-02-25T02:12:48.387Z,48.20
2023-02-25T02:15:17.341Z,48.70
2023-02-25T02:17:46.735Z,48.30
2023-02-25T02:20:15.582Z,48.90
2023-02-25T02:22:44.324Z,48.10
2023-02-25T02:25:13.556Z,48.40
2023-02-25T02:27:42.418Z,48.30
2023-02-25T02:30:11.681Z,48.40
2023-02-25T02:32:40.188Z,48.60
2023-02-25T02:35:08.351Z,48.30
2023-02-25T02:37:37.131Z,48.40
2023-02-25T02:40:06.419Z,48.40
2023-02-25T02:42:35.299Z,48.40
2023-02-25T02:45:04.428Z,48.40
2023-02-25T02:47:33.197Z,48.40
2023-02-25T02:50:03.502Z,48.30
2023-02-25T02:52:31.690Z,48.30
2023-02-25T02:55:00.547Z,48.50
2023-02-25T02:57:28.690Z,48.40
2023-02-25T02:59:56.840Z,48.50
2023-02-25T03:02:25.808Z,48.50
2023-02-25T03:04:55.142Z,48.30
2023-02-25T03:07:24.013Z,48.40
2023-02-25T03:09:53.350Z,48.60
2023-02-25T03:12:21.978Z,48.60
2023-02-25T03:14:50.242Z,48.40
2023-02-25T03:17:19.187Z,48.30
2023-02-25T03:19:48.332Z,48.20
2023-02-25T03:22:18.256Z,48.20
2023-02-25T03:24:47.549Z,48.50
2023-02-25T03:27:16.492Z,48.50
2023-02-25T03:29:45.847Z,48.50
2023-02-25T03:32:14.815Z,48.40
2023-02-25T03:34:43.841Z,48.20
2023-02-25T03:37:14.508Z,48.30
2023-02-25T03:39:43.755Z,48.60
2023-02-25T03:42:13.229Z,48.50
2023-02-25T03:44:43.499Z,48.20
2023-02-25T03:47:12.390Z,48.30
2023-02-25T03:49:43.087Z,48.50
2023-02-25T03:52:11.713Z,48.40
2023-02-25T03:54:40.959Z,48.50
2023-02-25T03:57:09.974Z,48.40
2023-02-25T03:59:38.797Z,48.20
2023-02-25T04:02:08.226Z,48.30
2023-02-25T04:04:37.035Z,48.20
2023-02-25T04:07:05.940Z,48.30
2023-02-25T04:09:35.372Z,48.30
2023-02-25T04:12:04.225Z,48.10
2023-02-25T04:14:33.590Z,48.40
2023-02-25T04:17:01.992Z,48.30
2023-02-25T04:19:30.391Z,48.20
2023-02-25T04:21:59.280Z,48.40
2023-02-25T04:24:28.617Z,48.30
2023-02-25T04:26:57.862Z,48.40
2023-02-25T04:29:27.120Z,48.30
2023-02-25T04:31:56.464Z,48.60
2023-02-25T04:34:25.812Z,48.40
2023-02-25T04:36:54.944Z,48.60
2023-02-25T04:39:23.719Z,48.60
2023-02-25T04:41:52.986Z,48.80
2023-02-25T04:44:22.285Z,48.80
2023-02-25T04:46:51.551Z,48.90
2023-02-25T04:49:20.393Z,48.80
2023-02-25T04:51:49.194Z,48.80
2023-02-25T04:54:18.000Z,48.40
2023-02-25T04:56:47.278Z,48.60
2023-02-25T04:59:16.285Z,48.40
2023-02-25T05:01:49.573Z,48.20
2023-02-25T05:04:18.591Z,48.50
2023-02-25T05:06:46.762Z,48.40
2023-02-25T05:09:15.881Z,48.20
2023-02-25T05:11:48.163Z,48.40
2023-02-25T05:14:17.419Z,48.30
2023-02-25T05:16:46.228Z,48.50
2023-02-25T05:19:15.461Z,48.50
2023-02-25T05:21:44.748Z,48.30
2023-02-25T05:24:14.021Z,48.10
2023-02-25T05:26:42.935Z,48.40
2023-02-25T05:29:12.181Z,48.10
2023-02-25T05:31:41.686Z,48.10
2023-02-25T05:34:10.597Z,47.90
2023-02-25T05:36:39.838Z,48.10
2023-02-25T05:39:09.068Z,48.10
2023-02-25T05:41:38.313Z,48.20
2023-02-25T05:44:07.717Z,48.10
2023-02-25T05:46:36.970Z,48.20
2023-02-25T05:49:06.278Z,48.10
2023-02-25T05:51:35.604Z,48.10
2023-02-25T05:54:04.956Z,48.40
2023-02-25T05:56:34.143Z,48.20
2023-02-25T05:59:03.370Z,48.20
2023-02-25T06:01:32.609Z,48.50
2023-02-25T06:04:01.353Z,48.30
2023-02-25T06:06:29.894Z,48.20
2023-02-25T06:08:58.541Z,48.20
2023-02-25T06:11:27.798Z,48.40
2023-02-25T06:13:57.138Z,48.80
2023-02-25T06:16:26.929Z,48.60
2023-02-25T06:18:56.043Z,48.90
2023-02-25T06:21:25.437Z,48.90
2023-02-25T06:23:54.227Z,48.90
2023-02-25T06:26:23.459Z,48.90
2023-02-25T06:28:52.370Z,48.80
2023-02-25T06:31:21.435Z,48.90
2023-02-25T06:33:50.173Z,48.80
2023-02-25T06:36:19.444Z,48.80
2023-02-25T06:38:48.221Z,48.90
2023-02-25T06:41:17.456Z,49.00
2023-02-25T06:43:46.705Z,48.70
2023-02-25T06:46:15.568Z,48.40
2023-02-25T06:48:44.407Z,48.50
2023-02-25T06:51:13.609Z,48.20
2023-02-25T06:53:42.578Z,48.30
2023-02-25T06:56:10.637Z,48.30
2023-02-25T06:58:39.884Z,48.20
2023-02-25T07:01:09.166Z,48.30
2023-02-25T07:03:38.485Z,48.40
2023-02-25T07:06:07.790Z,48.10
2023-02-25T07:08:36.519Z,48.10
2023-02-25T07:11:05.778Z,48.20
2023-02-25T07:13:34.719Z,48.30
2023-02-25T07:16:03.444Z,48.20
2023-02-25T07:18:32.406Z,48.40
2023-02-25T07:21:02.649Z,48.50
2023-02-25T07:23:31.683Z,48.30
2023-02-25T07:26:00.658Z,48.70
2023-02-25T07:28:29.934Z,48.70
2023-02-25T07:30:59.744Z,48.60
2023-02-25T07:33:28.524Z,48.50
2023-02-25T07:35:57.110Z,48.30
2023-02-25T07:38:25.654Z,48.20
2023-02-25T07:40:53.802Z,48.20
2023-02-25T07:43:22.585Z,48.30
2023-02-25T07:45:51.992Z,48.50
2023-02-25T07:48:20.817Z,48.40
2023-02-25T07:50:49.778Z,48.30
2023-02-25T07:53:18.415Z,48.30
2023-02-25T07:55:47.748Z,48.30
2023-02-25T07:58:16.538Z,48.20
2023-02-25T08:00:45.835Z,48.20
2023-02-25T08:03:18.198Z,48.10
2023-02-25T08:05:49.744Z,48.00
2023-02-25T08:08:17.875Z,47.90
2023-02-25T08:10:45.984Z,47.90
2023-02-25T08:13:15.817Z,47.70
2023-02-25T08:15:45.341Z,47.50
2023-02-25T08:18:15.145Z,47.50
2023-02-25T08:20:44.417Z,47.50
2023-02-25T08:23:14.125Z,47.20
2023-02-25T08:25:41.219Z,47.20
2023-02-25T08:28:10.814Z,47.10
2023-02-25T08:30:40.114Z,46.90
2023-02-25T08:33:09.353Z,46.70
2023-02-25T08:35:38.494Z,47.50
2023-02-25T08:38:07.718Z,46.80
2023-02-25T08:40:36.509Z,46.90
2023-02-25T08:43:05.811Z,46.80
2023-02-25T08:45:35.132Z,46.80
2023-02-25T08:48:04.078Z,46.80
2023-02-25T08:50:33.172Z,46.70
2023-02-25T08:53:01.814Z,46.90
2023-02-25T08:55:31.175Z,46.30
2023-02-25T08:58:00.475Z,46.20
2023-02-25T09:00:29.752Z,45.70
2023-02-25T09:02:58.322Z,45.60
2023-02-25T09:05:26.541Z,45.80
2023-02-25T09:07:55.772Z,45.40
2023-02-25T09:10:25.037Z,45.40
2023-02-25T09:12:54.558Z,45.10
2023-02-25T09:15:23.818Z,45.00
2023-02-25T09:17:52.692Z,45.00
2023-02-25T09:20:21.083Z,44.80
2023-02-25T09:22:49.899Z,43.70
2023-02-25T09:25:18.701Z,42.30
2023-02-25T09:27:47.883Z,41.90
2023-02-25T09:30:16.690Z,40.60
2023-02-25T09:32:45.990Z,39.80
2023-02-25T09:35:15.315Z,37.80
2023-02-25T09:37:44.651Z,37.60
2023-02-25T09:40:19.958Z,36.50
2023-02-25T09:42:49.050Z,36.10
2023-02-25T09:45:17.325Z,36.70
2023-02-25T09:47:46.342Z,37.40
2023-02-25T09:50:14.260Z,38.30
2023-02-25T09:52:43.072Z,38.70
2023-02-25T09:55:12.563Z,39.10
2023-02-25T09:57:41.870Z,39.30
2023-02-25T10:00:11.459Z,39.60
2023-02-25T10:02:40.672Z,39.70
2023-02-25T10:05:09.559Z,39.50
2023-02-25T10:07:38.406Z,38.40
2023-02-25T10:10:07.670Z,38.30
2023-02-25T10:12:36.925Z,38.10
2023-02-25T10:15:05.741Z,38.50
2023-02-25T10:17:34.671Z,38.60
2023-02-25T10:20:03.365Z,38.60
2023-02-25T10:22:31.760Z,38.80
2023-02-25T10:25:01.108Z,38.70
2023-02-25T10:27:32.634Z,38.90
2023-02-25T10:30:01.409Z,38.30
2023-02-25T10:32:30.281Z,38.20
2023-02-25T10:34:59.639Z,38.40
2023-02-25T10:37:29.077Z,38.10
2023-02-25T10:39:58.427Z,37.50
2023-02-25T10:42:27.458Z,36.60
2023-02-25T10:44:55.696Z,36.50
2023-02-25T10:47:25.031Z,36.40
2023-02-25T10:49:54.324Z,36.50
2023-02-25T10:52:23.907Z,36.60
2023-02-25T10:54:53.371Z,36.20
2023-02-25T10:57:22.361Z,36.30
2023-02-25T10:59:50.946Z,36.60
2023-02-25T11:02:20.512Z,37.10
2023-02-25T11:04:49.907Z,37.30
2023-02-25T11:07:19.246Z,37.60
2023-02-25T11:09:48.630Z,38.40
2023-02-25T11:12:17.916Z,38.20
2023-02-25T11:14:46.664Z,38.60
2023-02-25T11:17:15.463Z,38.90
2023-02-25T11:19:44.235Z,38.60
2023-02-25T11:22:14.461Z,37.60
2023-02-25T11:24:43.616Z,37.30
2023-02-25T11:27:12.533Z,37.10
2023-02-25T11:29:40.847Z,36.70
2023-02-25T11:32:09.561Z,36.80
2023-02-25T11:34:38.923Z,36.70
2023-02-25T11:37:09.391Z,36.80
2023-02-25T11:39:37.784Z,36.90
2023-02-25T11:42:05.951Z,36.90
2023-02-25T11:44:35.345Z,37.00
2023-02-25T11:47:03.775Z,37.20
2023-02-25T11:49:33.000Z,37.20
2023-02-25T11:52:02.216Z,37.10
2023-02-25T11:54:31.565Z,37.00
2023-02-25T11:57:00.847Z,36.60
2023-02-25T11:59:30.093Z,36.80
2023-02-25T12:01:59.302Z,36.40
2023-02-25T12:04:29.034Z,36.30
2023-02-25T12:06:58.253Z,36.30
2023-02-25T12:09:27.062Z,36.20
2023-02-25T12:11:55.893Z,36.10
2023-02-25T12:14:24.833Z,36.20
2023-02-25T12:16:53.675Z,36.10
2023-02-25T12:19:23.022Z,36.20
2023-02-25T12:21:52.306Z,36.40
2023-02-25T12:24:21.579Z,35.60
2023-02-25T12:26:50.842Z,34.90
2023-02-25T12:29:20.224Z,34.10
2023-02-25T12:31:49.646Z,33.90
2023-02-25T12:34:21.056Z,33.20
2023-02-25T12:36:51.075Z,33.20
2023-02-25T12:39:20.366Z,33.40
2023-02-25T12:41:49.580Z,33.60
2023-02-25T12:44:18.869Z,33.90
2023-02-25T12:46:48.076Z,34.20
2023-02-25T12:49:16.846Z,34.10
2023-02-25T12:51:45.575Z,33.90
2023-02-25T12:54:14.777Z,33.50
2023-02-25T12:56:44.072Z,33.70
2023-02-25T12:59:13.325Z,33.10
2023-02-25T13:01:42.531Z,32.90
2023-02-25T13:04:11.739Z,31.90
2023-02-25T13:06:41.098Z,31.70
2023-02-25T13:09:10.306Z,31.90
2023-02-25T13:12:09.456Z,32.40
2023-02-25T13:14:27.983Z,32.70
2023-02-25T13:16:57.154Z,32.70
2023-02-25T13:19:26.345Z,33.00
2023-02-25T13:21:55.151Z,32.80
2023-02-25T13:24:24.502Z,33.10
2023-02-25T13:26:53.743Z,32.20
2023-02-25T13:29:22.773Z,31.70
2023-02-25T13:31:51.449Z,31.60
2023-02-25T13:34:20.340Z,31.60
2023-02-25T13:36:49.599Z,31.40
2023-02-25T13:39:18.793Z,31.30
2023-02-25T13:41:47.550Z,31.00
2023-02-25T13:44:16.830Z,30.70
2023-02-25T13:46:45.652Z,30.60
2023-02-25T13:49:14.978Z,30.50
2023-02-25T13:51:44.166Z,30.30
2023-02-25T13:54:13.424Z,30.10
2023-02-25T13:56:42.736Z,30.10
2023-02-25T13:59:11.970Z,30.00
2023-02-25T14:01:41.315Z,29.90
2023-02-25T14:04:10.570Z,29.90
2023-02-25T14:06:39.431Z,30.00
2023-02-25T14:09:08.657Z,30.20
2023-02-25T14:11:37.565Z,30.50
2023-02-25T14:14:07.004Z,30.40
2023-02-25T14:16:35.550Z,30.50
2023-02-25T14:19:04.203Z,30.60
2023-02-25T14:21:33.134Z,31.30
2023-02-25T14:24:03.169Z,30.60
2023-02-25T14:26:32.399Z,30.40
2023-02-25T14:29:01.722Z,30.30
2023-02-25T14:31:31.052Z,30.20
2023-02-25T14:34:00.376Z,30.00
2023-02-25T14:36:29.651Z,30.00
2023-02-25T14:38:58.896Z,30.10
2023-02-25T14:41:28.184Z,30.40
2023-02-25T14:43:57.557Z,30.70
2023-02-25T14:46:26.824Z,30.80
2023-02-25T14:48:55.701Z,30.60
2023-02-25T14:51:25.431Z,30.60
2023-02-25T14:53:54.974Z,30.20
2023-02-25T14:56:24.343Z,30.00
2023-02-25T14:58:57.771Z,29.80
2023-02-25T15:01:27.266Z,29.80
2023-02-25T15:03:56.614Z,30.00
2023-02-25T15:06:26.167Z,30.20
2023-02-25T15:08:55.564Z,30.20
2023-02-25T15:11:25.148Z,30.30
2023-02-25T15:13:54.656Z,30.40
2023-02-25T15:16:23.945Z,30.60
2023-02-25T15:18:53.254Z,30.80
2023-02-25T15:21:22.298Z,30.80
2023-02-25T15:23:51.718Z,31.00
2023-02-25T15:26:21.006Z,31.20
2023-02-25T15:28:50.484Z,31.40
2023-02-25T15:31:19.806Z,31.50
2023-02-25T15:33:49.063Z,31.70
2023-02-25T15:36:18.378Z,32.00
2023-02-25T15:38:46.952Z,32.10
2023-02-25T15:41:15.776Z,32.20
2023-02-25T15:43:45.039Z,32.40
2023-02-25T15:46:14.449Z,32.60
2023-02-25T15:48:43.775Z,32.50
2023-02-25T15:51:11.591Z,32.50
2023-02-25T15:53:40.321Z,32.70
2023-02-25T15:56:09.592Z,32.80
2023-02-25T15:58:40.155Z,33.00
2023-02-25T16:01:09.632Z,33.00
2023-02-25T16:03:39.012Z,33.00
2023-02-25T16:06:08.335Z,33.00
2023-02-25T16:08:37.714Z,33.00
2023-02-25T16:11:06.624Z,33.00
2023-02-25T16:13:35.888Z,33.50
2023-02-25T16:16:05.215Z,33.10
2023-02-25T16:18:35.514Z,33.20
2023-02-25T16:21:05.407Z,33.40
2023-02-25T16:23:34.705Z,33.50
2023-02-25T16:26:03.994Z,33.60
2023-02-25T16:28:33.358Z,33.70
2023-02-25T16:31:05.850Z,33.90
2023-02-25T16:33:34.502Z,34.00
2023-02-25T16:36:07.993Z,34.10
2023-02-25T16:38:38.328Z,34.00
2023-02-25T16:41:07.683Z,34.00
2023-02-25T16:43:36.973Z,34.00
2023-02-25T16:46:06.361Z,34.30
2023-02-25T16:48:35.682Z,34.30
2023-02-25T16:51:05.363Z,34.50
2023-02-25T16:53:33.672Z,34.50
2023-02-25T16:56:02.880Z,34.80
2023-02-25T16:58:32.100Z,34.70
2023-02-25T17:01:01.395Z,34.80
2023-02-25T17:03:30.807Z,35.00
2023-02-25T17:06:00.300Z,35.10
2023-02-25T17:08:29.671Z,35.40
2023-02-25T17:10:58.999Z,35.40
2023-02-25T17:13:28.440Z,35.20
2023-02-25T17:15:57.798Z,35.40
2023-02-25T17:18:26.346Z,35.70
2023-02-25T17:20:54.580Z,35.90
2023-02-25T17:23:23.890Z,35.90
2023-02-25T17:25:53.178Z,36.20
2023-02-25T17:28:22.532Z,36.50
2023-02-25T17:30:51.892Z,36.20
2023-02-25T17:33:21.293Z,36.50
2023-02-25T17:35:50.084Z,36.40
2023-02-25T17:38:19.414Z,36.60
2023-02-25T17:40:48.717Z,36.60
2023-02-25T17:43:17.932Z,36.60
2023-02-25T17:45:46.861Z,36.60
2023-02-25T17:48:16.242Z,36.90
2023-02-25T17:50:44.748Z,37.00
2023-02-25T17:53:13.335Z,36.90
2023-02-25T17:55:42.498Z,36.90
2023-02-25T17:58:11.721Z,37.10
2023-02-25T18:00:40.561Z,37.00
2023-02-25T18:03:10.036Z,37.10
2023-02-25T18:05:38.895Z,37.20
2023-02-25T18:08:07.755Z,37.10
2023-02-25T18:10:38.027Z,37.20
2023-02-25T18:13:08.222Z,37.60
2023-02-25T18:15:38.503Z,37.50
2023-02-25T18:18:08.379Z,37.60
2023-02-25T18:20:37.721Z,37.60
2023-02-25T18:23:06.999Z,37.60
2023-02-25T18:25:36.325Z,37.60
2023-02-25T18:28:05.582Z,37.30
2023-02-25T18:30:34.633Z,37.60
2023-02-25T18:33:02.833Z,37.60
2023-02-25T18:35:31.672Z,37.50
2023-02-25T18:38:01.045Z,37.40
2023-02-25T18:40:30.350Z,37.60
2023-02-25T18:42:59.532Z,37.60
2023-02-25T18:45:28.642Z,37.60
2023-02-25T18:47:58.088Z,37.50
2023-02-25T18:50:27.270Z,37.60
2023-02-25T18:52:56.558Z,37.60
2023-02-25T18:55:25.860Z,37.70
2023-02-25T18:57:54.738Z,37.80
2023-02-25T19:00:23.959Z,37.90
2023-02-25T19:02:52.826Z,38.00
2023-02-25T19:05:21.755Z,38.00
2023-02-25T19:07:50.571Z,38.10
2023-02-25T19:10:19.403Z,38.10
2023-02-25T19:12:48.623Z,38.20
2023-02-25T19:15:17.460Z,38.30
2023-02-25T19:17:46.741Z,38.30
2023-02-25T19:20:16.901Z,38.40
2023-02-25T19:22:47.215Z,38.50
2023-02-25T19:25:20.454Z,38.50
2023-02-25T19:27:49.752Z,38.60
2023-02-25T19:30:19.957Z,38.60
2023-02-25T19:32:50.271Z,38.80
2023-02-25T19:35:19.524Z,38.90
2023-02-25T19:37:48.753Z,39.00
2023-02-25T19:40:17.880Z,39.00
2023-02-25T19:42:50.925Z,39.00
2023-02-25T19:45:20.132Z,39.70
2023-02-25T19:47:48.979Z,39.20
2023-02-25T19:50:17.545Z,39.20
2023-02-25T19:52:46.479Z,39.20
2023-02-25T19:55:15.100Z,39.30
2023-02-25T19:57:44.000Z,39.40
2023-02-25T20:00:14.321Z,39.40
2023-02-25T20:02:45.767Z,39.40
2023-02-25T20:05:16.171Z,39.50
2023-02-25T20:07:45.007Z,39.60
2023-02-25T20:10:14.047Z,39.60
2023-02-25T20:12:42.712Z,39.70
2023-02-25T20:15:12.053Z,39.70
2023-02-25T20:17:41.343Z,39.70
2023-02-25T20:20:10.845Z,39.80
2023-02-25T20:22:39.693Z,39.90
2023-02-25T20:25:08.918Z,39.90
2023-02-25T20:27:38.636Z,40.00
2023-02-25T20:30:08.125Z,40.00
2023-02-25T20:32:37.563Z,40.10
2023-02-25T20:35:06.868Z,40.10
2023-02-25T20:37:36.246Z,40.20
2023-02-25T20:40:05.615Z,40.20
2023-02-25T20:42:34.448Z,40.20
2023-02-25T20:45:03.766Z,40.20
2023-02-25T20:47:32.592Z,40.40
2023-02-25T20:50:01.549Z,40.40
2023-02-25T20:52:30.115Z,40.50
2023-02-25T20:54:59.346Z,40.50
2023-02-25T20:57:28.345Z,40.60
2023-02-25T20:59:57.076Z,40.70
2023-02-25T21:02:30.404Z,40.70
2023-02-25T21:04:59.656Z,40.70
2023-02-25T21:07:28.936Z,40.80
2023-02-25T21:09:58.296Z,40.80
2023-02-25T21:12:31.729Z,40.80
2023-02-25T21:15:00.941Z,40.90
2023-02-25T21:17:29.968Z,40.90
2023-02-25T21:19:58.590Z,41.00
2023-02-25T21:22:27.064Z,41.00
2023-02-25T21:24:59.001Z,41.00
2023-02-25T21:27:27.622Z,41.10
2023-02-25T21:29:56.597Z,41.70
2023-02-25T21:32:24.939Z,41.10
2023-02-25T21:34:54.542Z,41.20
2023-02-25T21:37:23.789Z,41.20
2023-02-25T21:39:53.996Z,41.20
2023-02-25T21:42:24.434Z,41.20
2023-02-25T21:44:52.977Z,41.30
2023-02-25T21:47:22.091Z,41.20
2023-02-25T21:49:50.725Z,41.30
2023-02-25T21:52:20.016Z,41.40
2023-02-25T21:54:48.804Z,41.50
2023-02-25T21:57:17.540Z,41.50
2023-02-25T21:59:46.730Z,41.50
2023-02-25T22:02:16.007Z,41.50
2023-02-25T22:04:45.219Z,41.60
2023-02-25T22:07:14.470Z,41.70
2023-02-25T22:09:43.380Z,41.60
2023-02-25T22:12:11.582Z,41.60
2023-02-25T22:14:40.844Z,41.60
2023-02-25T22:17:10.749Z,41.60
2023-02-25T22:19:39.488Z,41.80
2023-02-25T22:22:08.789Z,41.70
2023-02-25T22:24:38.128Z,41.70
2023-02-25T22:27:07.309Z,41.80
2023-02-25T22:29:36.485Z,41.80
2023-02-25T22:32:05.841Z,41.80
2023-02-25T22:34:35.184Z,41.80
2023-02-25T22:37:08.367Z,41.80
2023-02-25T22:39:37.134Z,41.90
2023-02-25T22:42:06.472Z,41.90
2023-02-25T22:44:35.798Z,42.00
2023-02-25T22:47:04.523Z,42.00
2023-02-25T22:49:33.417Z,42.10
2023-02-25T22:52:01.962Z,42.10
2023-02-25T22:54:30.724Z,42.20
2023-02-25T22:57:00.056Z,42.80
2023-02-25T22:59:29.299Z,42.10
2023-02-25T23:01:58.196Z,42.10
2023-02-25T23:04:27.500Z,42.30
2023-02-25T23:06:56.815Z,42.30
2023-02-25T23:09:26.056Z,42.20
2023-02-25T23:11:55.214Z,42.40
2023-02-25T23:14:24.422Z,42.40
2023-02-25T23:16:53.716Z,42.40
2023-02-25T23:19:22.989Z,42.40
2023-02-25T23:21:52.407Z,42.40
2023-02-25T23:24:21.940Z,42.40
2023-02-25T23:26:51.256Z,42.50
2023-02-25T23:29:20.144Z,42.60
2023-02-25T23:31:49.538Z,42.80
2023-02-25T23:34:18.927Z,42.50
2023-02-25T23:36:48.150Z,42.50
2023-02-25T23:39:16.926Z,42.50
2023-02-25T23:41:46.200Z,42.50
2023-02-25T23:44:15.466Z,42.60
2023-02-25T23:46:44.725Z,42.50
2023-02-25T23:49:14.062Z,42.50
2023-02-25T23:51:42.825Z,42.50
2023-02-25T23:54:12.038Z,43.10
2023-02-25T23:56:40.847Z,42.40
2023-02-25T23:59:10.218Z,42.40
